KBYG/BYG METAR and TAF weather

Enter ICAO airport designator
Station Type Date Time Source
KBYG METAR 2019/08/19 00:53 UTC NOAA

KBYG 190053Z AUTO 29004KT 10SM CLR 25/08 A2997 RMK AO2 SLP101 T02500078


Station Type Date Time Source
KBYG Decoded METAR 2019/08/19 00:53 UTC NOAA

Station name not available
Aug 18, 2019 - 08:53 PM EDT / 2019.08.19 0053 UTC
Wind: from the WNW (290 degrees) at 5 MPH (4 KT):0
Visibility: 10 mile(s):0
Sky conditions: clear
Temperature: 77.0 F (25.0 C)
Dew Point: 46.0 F (7.8 C)
Relative Humidity: 33%
Pressure (altimeter): 29.97 in. Hg (1014 hPa)
ob: KBYG 190053Z AUTO 29004KT 10SM CLR 25/08 A2997 RMK AO2 SLP101 T02500078
cycle: 1

Station Type Date Time Source
KBYG TAF UTC NOAA

Error!

Example: see airport list